CSA2 weather

Lac Agile (Mascouche) Airport
Lac Agile, Quebec, Canada

Public forecast

Using degrees Celsius for public forecast. Weather courtesy of forecast.io.

METAR (pilot weather report)

Closest report is Montreal International (Mirabel) Airport, 18.1 nm (33.5 km) WSW. Retrieved 2019/07/17 17:00 UTC (51 minutes ago):

CYMX 171700Z 26005KT 190V310 20SM -SHRA BKN027 OVC260 27/22 A2984 RMK CU7CI1 VIS NE QUAD 2 SLP104 DENSITY ALT 1900FT

TAF (pilot weather forecast)

Closest forecast is Montreal International (Mirabel) Airport, 18.1 nm (33.5 km) WSW. Retrieved 2019/07/17 12:42 UTC (5 hours ago):

TAF CYMX 171138Z 1712/1812 25008KT P6SM FEW070 BKN220 FM171400 24008KT P6SM BKN050 BKN230 TEMPO 1716/1720 5SM SHRA BR OVC015 FM172000 28005KT P6SM BKN040 BECMG 1720/1722 36005KT FM180300 04005KT P6SM SKC RMK NXT FCST BY 171800Z